Time;durP1;ratioP1;P1;durP2;ratioP2;P2;SDS_P1;SDS_P2;PMS_P1;PMS_P2;Temp;Humidity;BMP_temperature;BMP_pressure;BME280_temperature;BME280_humidity;BME280_pressure;Samples;Min_cycle;Max_cycle;Signal;HPM_P1;HPM_P2
2022/06/23 00:00:19;;;;;;;;;;;;;;;22.45;52.02;94672.38;5002526;28;19917;-78
2022/06/23 00:02:44;;;;;;;;;;;;;;;22.48;51.55;94679.72;5076718;22;20028;-77
2022/06/23 00:05:15;;;;;;;;;;;;;;;22.47;51.59;94672.88;5030032;28;19917;-77
2022/06/23 00:07:42;;;;;;;;;;;;;;;22.43;51.64;94671.91;5019284;28;19923;-77
2022/06/23 00:10:15;;;;;;;;;;;;;;;22.41;51.74;94671.44;5167507;23;19925;-76
2022/06/23 00:12:40;;;;;;;;;;;;;;;22.36;51.68;94666.28;5049724;28;19917;-77
2022/06/23 00:15:12;;;;;;;;;;;;;;;22.36;51.52;94676.91;5049779;28;19943;-77
2022/06/23 00:20:15;;;;;;;;;;;;;;;22.27;52.16;94671.56;5109074;22;19952;-75
2022/06/23 00:22:41;;;;;;;;;;;;;;;22.25;51.97;94675.63;5052981;22;19921;-77
2022/06/23 00:25:07;;;;;;;;;;;;;;;22.24;52.04;94671.41;5239347;22;19925;-77
2022/06/23 00:27:33;;;;;;;;;;;;;;;22.22;51.62;94673.59;5030238;28;19916;-76
2022/06/23 00:30:02;;;;;;;;;;;;;;;22.16;52.23;94665.78;5041394;28;20524;-77
2022/06/23 00:32:28;;;;;;;;;;;;;;;22.14;52.30;94659.25;5068065;28;19982;-76
2022/06/23 00:35:01;;;;;;;;;;;;;;;22.11;53.07;94657.19;5078026;28;19939;-77
2022/06/23 00:37:26;;;;;;;;;;;;;;;22.04;53.13;94644.38;5067574;28;19928;-76
2022/06/23 00:39:54;;;;;;;;;;;;;;;21.97;53.69;94625.53;5053768;28;19916;-77
2022/06/23 00:42:23;;;;;;;;;;;;;;;21.85;54.11;94612.09;5049181;28;19980;-78
2022/06/23 00:44:51;;;;;;;;;;;;;;;21.69;54.56;94614.38;5050078;28;19917;-76
2022/06/23 00:47:18;;;;;;;;;;;;;;;21.66;54.55;94635.38;5049371;28;19920;-76
2022/06/23 00:50:02;;;;;;;;;;;;;;;21.62;54.60;94645.00;5055066;28;19917;-76
2022/06/23 00:53:03;;;;;;;;;;;;;;;21.62;54.32;94648.44;5048391;28;19921;-77
2022/06/23 00:55:34;;;;;;;;;;;;;;;21.63;54.42;94651.84;5007035;28;19921;-77
2022/06/23 00:58:01;;;;;;;;;;;;;;;21.69;53.86;94655.94;5049475;28;20360;-76
2022/06/23 01:00:38;;;;;;;;;;;;;;;21.70;53.68;94650.34;5052962;28;19931;-77
2022/06/23 01:03:05;;;;;;;;;;;;;;;21.71;53.27;94643.97;5056611;28;20014;-77
2022/06/23 01:05:32;;;;;;;;;;;;;;;21.76;53.81;94635.09;5037738;28;19924;-77
2022/06/23 01:08:21;;;;;;;;;;;;;;;21.76;53.87;94640.38;5049055;28;19928;-77
2022/06/23 01:10:54;;;;;;;;;;;;;;;21.78;53.80;94638.22;5097630;23;19925;-77
2022/06/23 01:13:31;;;;;;;;;;;;;;;21.77;54.51;94641.94;5004432;28;19922;-77
2022/06/23 01:16:00;;;;;;;;;;;;;;;21.79;54.59;94640.56;4989917;28;19918;-77
2022/06/23 01:18:36;;;;;;;;;;;;;;;21.79;54.92;94637.13;4988117;28;20016;-77
2022/06/23 01:21:08;;;;;;;;;;;;;;;21.80;54.80;94625.44;5085500;23;19921;-77
2022/06/23 01:23:47;;;;;;;;;;;;;;;21.81;54.51;94627.03;5075327;22;19923;-77
2022/06/23 01:26:19;;;;;;;;;;;;;;;21.73;55.18;94625.91;5025917;28;19921;-77
2022/06/23 01:28:44;;;;;;;;;;;;;;;21.59;55.64;94638.47;5016317;28;19917;-77
2022/06/23 01:31:18;;;;;;;;;;;;;;;21.49;55.69;94631.59;5019511;28;20696;-77
2022/06/23 01:33:43;;;;;;;;;;;;;;;21.44;56.36;94634.34;5018445;28;20113;-77
2022/06/23 01:36:11;;;;;;;;;;;;;;;21.32;57.00;94620.91;5019344;28;20388;-77
2022/06/23 01:38:50;;;;;;;;;;;;;;;21.27;56.50;94613.88;5019493;28;19917;-77
2022/06/23 01:41:27;;;;;;;;;;;;;;;21.24;56.86;94608.38;5022230;28;19917;-77
2022/06/23 01:43:59;;;;;;;;;;;;;;;21.22;57.39;94607.91;5020307;28;19921;-77
2022/06/23 01:46:44;;;;;;;;;;;;;;;21.25;57.68;94615.25;5020990;28;19922;-77
2022/06/23 01:49:12;;;;;;;;;;;;;;;21.27;58.34;94607.81;5018583;28;19971;-76
2022/06/23 01:51:38;;;;;;;;;;;;;;;21.27;57.98;94597.22;5105087;22;19928;-75
2022/06/23 01:54:07;;;;;;;;;;;;;;;21.25;58.45;94596.75;5163393;22;19924;-75
2022/06/23 01:56:34;;;;;;;;;;;;;;;21.24;58.44;94592.53;5068605;22;20354;-75
2022/06/23 01:59:12;;;;;;;;;;;;;;;21.21;58.42;94587.84;5033659;28;19920;-75
2022/06/23 02:01:41;;;;;;;;;;;;;;;21.18;58.73;94593.75;5076281;22;19919;-75
2022/06/23 02:04:26;;;;;;;;;;;;;;;21.16;58.72;94585.34;5026878;28;20015;-76
2022/06/23 02:09:20;;;;;;;;;;;;;;;21.10;58.72;94582.03;5049408;22;19921;-77
2022/06/23 02:11:46;;;;;;;;;;;;;;;21.09;58.71;94584.97;5031660;28;19970;-77
2022/06/23 02:14:19;;;;;;;;;;;;;;;21.02;59.17;94590.69;5013310;28;19913;-77
2022/06/23 02:16:47;;;;;;;;;;;;;;;21.01;58.95;94589.13;5030006;28;19921;-77
2022/06/23 02:19:31;;;;;;;;;;;;;;;20.98;58.83;94595.78;5032987;28;19917;-76
2022/06/23 02:22:08;;;;;;;;;;;;;;;20.90;59.80;94585.19;5031339;28;19917;-77
2022/06/23 02:24:34;;;;;;;;;;;;;;;20.87;59.85;94594.50;5030774;28;20031;-77
2022/06/23 02:27:12;;;;;;;;;;;;;;;20.82;59.51;94591.94;5043665;23;19921;-77
2022/06/23 02:29:42;;;;;;;;;;;;;;;20.81;59.87;94593.03;5031439;28;19921;-77
2022/06/23 02:32:23;;;;;;;;;;;;;;;20.80;59.98;94593.34;5031611;28;19921;-77
2022/06/23 02:35:00;;;;;;;;;;;;;;;20.79;60.00;94597.84;5026533;28;19982;-77
2022/06/23 02:37:44;;;;;;;;;;;;;;;20.73;60.09;94601.69;5031365;28;19921;-77
2022/06/23 02:40:35;;;;;;;;;;;;;;;20.71;59.91;94600.44;5031582;28;19917;-77
2022/06/23 02:43:25;;;;;;;;;;;;;;;20.66;60.06;94604.78;5027668;28;19924;-77
2022/06/23 02:46:17;;;;;;;;;;;;;;;20.68;59.94;94601.81;4998462;28;19925;-77
2022/06/23 02:48:57;;;;;;;;;;;;;;;20.67;59.77;94610.84;5102003;22;20319;-76
2022/06/23 02:51:29;;;;;;;;;;;;;;;20.61;60.01;94609.38;5026271;28;19921;-77
2022/06/23 02:54:02;;;;;;;;;;;;;;;20.50;60.17;94605.38;5020806;28;19924;-77
2022/06/23 02:56:46;;;;;;;;;;;;;;;20.45;60.63;94613.44;5021191;28;20371;-77
2022/06/23 02:59:17;;;;;;;;;;;;;;;20.44;60.07;94614.53;5020140;28;20369;-77
2022/06/23 03:04:23;;;;;;;;;;;;;;;20.45;60.65;94624.00;5049923;28;19936;-76
2022/06/23 03:06:51;;;;;;;;;;;;;;;20.46;60.75;94625.56;5122560;22;19989;-77
2022/06/23 03:09:19;;;;;;;;;;;;;;;20.50;60.33;94626.53;5054128;28;19920;-77
2022/06/23 03:11:54;;;;;;;;;;;;;;;20.43;59.75;94624.31;5062073;28;19956;-76
2022/06/23 03:14:38;;;;;;;;;;;;;;;20.41;60.03;94634.38;5045161;28;19999;-75
2022/06/23 03:17:14;;;;;;;;;;;;;;;20.45;60.41;94635.34;5040640;28;19921;-74
2022/06/23 03:19:44;;;;;;;;;;;;;;;20.45;60.49;94634.56;5039627;28;19939;-76
2022/06/23 03:22:09;;;;;;;;;;;;;;;20.50;60.29;94615.97;5055032;28;20015;-75
2022/06/23 03:27:23;;;;;;;;;;;;;;;20.72;59.34;94608.06;5028877;28;20439;-75
2022/06/23 03:29:53;;;;;;;;;;;;;;;20.84;59.99;94600.38;5030706;28;19935;-76
2022/06/23 03:32:20;;;;;;;;;;;;;;;20.94;60.01;94594.84;5013116;28;19921;-75
2022/06/23 03:34:55;;;;;;;;;;;;;;;21.04;59.36;94593.81;5034221;28;19975;-77
2022/06/23 03:37:22;;;;;;;;;;;;;;;21.17;59.16;94594.81;5059073;22;19992;-76
2022/06/23 03:45:19;;;;;;;;;;;;;;;21.51;58.04;94600.31;5110101;22;19971;-77
2022/06/23 03:50:16;;;;;;;;;;;;;;;21.92;57.10;94588.59;5073528;22;19925;-77
2022/06/23 03:52:44;;;;;;;;;;;;;;;22.17;55.94;94585.25;5087073;22;20251;-77
2022/06/23 03:55:17;;;;;;;;;;;;;;;22.45;54.85;94604.28;5036104;22;19922;-78
2022/06/23 03:57:43;;;;;;;;;;;;;;;22.71;54.02;94609.56;5007779;28;20345;-78
2022/06/23 04:00:22;;;;;;;;;;;;;;;22.98;53.06;94605.84;5000988;28;19921;-77
2022/06/23 04:03:06;;;;;;;;;;;;;;;23.25;51.61;94604.69;4998209;28;20035;-77
2022/06/23 04:05:40;;;;;;;;;;;;;;;24.04;49.85;94597.19;5001152;28;19922;-77
2022/06/23 04:08:06;;;;;;;;;;;;;;;25.14;46.97;94610.00;5000727;28;19917;-77
2022/06/23 04:10:37;;;;;;;;;;;;;;;26.19;44.21;94607.66;5000197;28;19929;-77
2022/06/23 04:13:05;;;;;;;;;;;;;;;27.24;41.59;94612.94;5078224;22;20020;-77
2022/06/23 04:15:33;;;;;;;;;;;;;;;28.24;39.95;94610.03;5038058;28;20011;-77
2022/06/23 04:18:01;;;;;;;;;;;;;;;29.06;38.10;94604.50;5028112;28;20329;-75
2022/06/23 04:20:48;;;;;;;;;;;;;;;29.98;36.27;94613.38;5030218;28;19963;-77
2022/06/23 04:23:13;;;;;;;;;;;;;;;30.90;34.60;94613.13;5027695;28;19921;-77
2022/06/23 04:25:47;;;;;;;;;;;;;;;31.62;33.37;94616.22;5029089;28;19919;-76
2022/06/23 04:28:17;;;;;;;;;;;;;;;32.62;31.16;94616.97;5029349;28;19936;-76
2022/06/23 04:33:13;;;;;;;;;;;;;;;34.15;28.86;94595.00;5061380;22;20017;-76
2022/06/23 04:35:39;;;;;;;;;;;;;;;34.74;27.88;94592.59;5031701;28;19962;-76
2022/06/23 04:38:07;;;;;;;;;;;;;;;35.46;26.67;94594.56;5031039;28;20022;-77
2022/06/23 04:40:36;;;;;;;;;;;;;;;36.00;26.26;94605.03;5050473;28;19924;-76
2022/06/23 04:43:20;;;;;;;;;;;;;;;36.67;24.62;94609.03;5031086;28;20381;-76
2022/06/23 04:45:53;;;;;;;;;;;;;;;37.51;24.12;94587.47;5049487;28;20080;-77
2022/06/23 04:48:21;;;;;;;;;;;;;;;38.13;22.98;94596.97;5048280;28;20368;-76
2022/06/23 04:50:55;;;;;;;;;;;;;;;38.61;22.45;94592.28;5045252;28;19970;-77
2022/06/23 04:53:32;;;;;;;;;;;;;;;38.62;22.30;94600.00;5030537;28;19917;-77
2022/06/23 04:56:05;;;;;;;;;;;;;;;38.77;22.51;94597.03;5033353;28;19917;-77
2022/06/23 04:58:31;;;;;;;;;;;;;;;39.18;21.81;94597.38;5031029;28;19917;-76
2022/06/23 05:00:56;;;;;;;;;;;;;;;39.38;21.72;94585.66;5013098;28;19932;-76
2022/06/23 05:03:27;;;;;;;;;;;;;;;39.66;21.46;94576.88;5027617;28;20314;-76
2022/06/23 05:05:53;;;;;;;;;;;;;;;40.40;20.26;94577.03;5046947;28;19924;-76
2022/06/23 05:08:26;;;;;;;;;;;;;;;41.25;19.41;94573.13;5046298;28;19917;-76
2022/06/23 05:10:58;;;;;;;;;;;;;;;41.85;19.07;94584.16;5026594;28;19921;-76
2022/06/23 05:13:26;;;;;;;;;;;;;;;42.78;18.33;94577.09;5026599;28;19924;-77
2022/06/23 05:15:57;;;;;;;;;;;;;;;43.46;17.47;94577.38;5029420;28;20391;-77
2022/06/23 05:18:24;;;;;;;;;;;;;;;44.21;16.67;94591.59;5031195;28;19917;-77
2022/06/23 05:20:49;;;;;;;;;;;;;;;44.54;16.22;94600.00;5048829;28;19917;-77
2022/06/23 05:23:17;;;;;;;;;;;;;;;42.79;17.44;94599.75;5051634;28;19975;-77
2022/06/23 05:25:43;;;;;;;;;;;;;;;40.31;20.42;94586.97;5051808;28;19920;-77
2022/06/23 05:28:14;;;;;;;;;;;;;;;38.57;21.99;94569.84;5053503;28;19917;-78
2022/06/23 05:30:40;;;;;;;;;;;;;;;37.37;23.66;94552.41;5034282;28;19974;-77
2022/06/23 05:33:13;;;;;;;;;;;;;;;37.02;23.44;94578.06;5032496;28;20011;-77
2022/06/23 05:35:41;;;;;;;;;;;;;;;36.12;24.64;94601.03;5034674;28;20644;-77
2022/06/23 05:38:17;;;;;;;;;;;;;;;35.11;26.47;94606.34;5033806;28;19920;-77
2022/06/23 05:40:53;;;;;;;;;;;;;;;33.28;29.16;94582.59;5032102;28;20782;-76
2022/06/23 05:43:18;;;;;;;;;;;;;;;31.97;31.16;94571.97;5033957;28;19925;-75
2022/06/23 05:45:47;;;;;;;;;;;;;;;30.57;33.44;94613.84;5017943;28;20398;-77
2022/06/23 05:48:20;;;;;;;;;;;;;;;28.73;37.95;94649.69;5035908;28;20418;-76
2022/06/23 05:50:55;;;;;;;;;;;;;;;27.82;40.03;94762.91;5023191;28;19916;-75
2022/06/23 05:53:24;;;;;;;;;;;;;;;26.61;43.68;94927.44;5057793;28;19920;-77
2022/06/23 05:55:59;;;;;;;;;;;;;;;25.17;48.24;94961.72;5034049;28;19960;-77
2022/06/23 05:58:29;;;;;;;;;;;;;;;23.81;55.48;94924.09;5051959;28;19924;-77
2022/06/23 06:00:54;;;;;;;;;;;;;;;21.54;62.01;94755.78;5052099;28;19916;-77
2022/06/23 06:03:26;;;;;;;;;;;;;;;20.13;68.81;94760.34;5045010;28;19920;-76
2022/06/23 06:05:53;;;;;;;;;;;;;;;19.58;75.18;94801.69;5030323;28;19927;-77
2022/06/23 06:08:23;;;;;;;;;;;;;;;19.54;76.93;94821.75;5027986;28;20073;-77
2022/06/23 06:10:49;;;;;;;;;;;;;;;19.56;77.86;94831.00;5047428;28;19948;-77
2022/06/23 06:13:15;;;;;;;;;;;;;;;19.55;76.68;94832.06;5031869;28;19948;-80
2022/06/23 06:15:44;;;;;;;;;;;;;;;19.46;75.81;94846.91;5034713;28;19960;-79
2022/06/23 06:18:13;;;;;;;;;;;;;;;19.35;72.98;94837.59;5050672;28;19959;-77
2022/06/23 06:20:45;;;;;;;;;;;;;;;19.12;73.24;94832.09;5051406;28;19923;-77
2022/06/23 06:23:14;;;;;;;;;;;;;;;19.02;74.50;94805.88;5016277;28;19921;-77
2022/06/23 06:25:39;;;;;;;;;;;;;;;18.95;74.89;94773.84;5049486;28;19918;-76
2022/06/23 06:28:10;;;;;;;;;;;;;;;18.98;75.50;94762.72;5048672;28;19971;-77
2022/06/23 06:30:36;;;;;;;;;;;;;;;19.10;75.18;94754.38;5032882;28;19920;-77
2022/06/23 06:33:01;;;;;;;;;;;;;;;19.23;76.94;94758.16;5032632;28;19960;-76
2022/06/23 06:35:26;;;;;;;;;;;;;;;19.37;76.04;94759.00;5033152;28;20007;-77
2022/06/23 06:38:03;;;;;;;;;;;;;;;19.46;75.47;94757.25;5050877;28;19920;-77
2022/06/23 06:40:29;;;;;;;;;;;;;;;19.53;73.56;94756.91;5050681;28;19970;-77
2022/06/23 06:42:56;;;;;;;;;;;;;;;19.67;74.38;94758.50;5045389;23;19959;-76
2022/06/23 06:45:22;;;;;;;;;;;;;;;19.85;72.16;94756.09;5059870;22;20366;-76
2022/06/23 06:47:47;;;;;;;;;;;;;;;20.00;71.57;94740.78;5025608;28;20389;-75
2022/06/23 06:50:18;;;;;;;;;;;;;;;20.08;71.78;94736.69;5020640;28;19928;-75
2022/06/23 06:55:20;;;;;;;;;;;;;;;20.38;69.45;94732.69;5793979;22;19971;-78
2022/06/23 06:57:46;;;;;;;;;;;;;;;20.37;67.87;94739.03;5050308;28;19924;-77
2022/06/23 07:00:19;;;;;;;;;;;;;;;20.45;67.91;94734.94;5044842;28;19962;-76
2022/06/23 07:02:56;;;;;;;;;;;;;;;20.55;66.46;94732.88;5064832;28;19928;-75
2022/06/23 07:05:22;;;;;;;;;;;;;;;20.70;66.33;94733.63;5041345;28;19980;-75
2022/06/23 07:07:48;;;;;;;;;;;;;;;20.85;65.38;94741.25;5049978;28;20403;-75
2022/06/23 07:10:28;;;;;;;;;;;;;;;21.02;64.61;94748.53;5049651;28;19916;-75
2022/06/23 07:12:58;;;;;;;;;;;;;;;21.25;68.41;94747.50;5057940;28;20481;-75
2022/06/23 07:15:30;;;;;;;;;;;;;;;21.36;65.77;94746.19;5055467;28;20425;-75
2022/06/23 07:18:04;;;;;;;;;;;;;;;21.40;64.82;94749.78;5049888;28;20130;-75
2022/06/23 07:20:33;;;;;;;;;;;;;;;21.32;65.25;94745.22;5037991;28;19979;-76
2022/06/23 07:23:03;;;;;;;;;;;;;;;20.95;66.33;94762.94;5055852;28;19942;-76
2022/06/23 07:25:39;;;;;;;;;;;;;;;20.74;68.04;94775.03;5040412;28;19991;-76
2022/06/23 07:28:05;;;;;;;;;;;;;;;20.64;69.22;94769.94;5055277;28;19921;-76
2022/06/23 07:30:31;;;;;;;;;;;;;;;20.62;70.58;94769.44;5039158;28;19920;-76
2022/06/23 07:32:57;;;;;;;;;;;;;;;21.07;69.06;94775.63;5039391;28;19921;-76
2022/06/23 07:35:25;;;;;;;;;;;;;;;21.75;66.80;94784.41;5046684;28;19967;-77
2022/06/23 07:37:52;;;;;;;;;;;;;;;22.00;62.76;94781.13;5049902;28;19920;-76
2022/06/23 07:40:17;;;;;;;;;;;;;;;21.99;64.54;94787.50;5040197;28;19998;-76
2022/06/23 07:43:04;;;;;;;;;;;;;;;22.14;61.67;94787.16;5055166;28;19916;-76
2022/06/23 07:45:34;;;;;;;;;;;;;;;22.26;59.31;94783.91;5053715;28;19948;-76
2022/06/23 07:47:59;;;;;;;;;;;;;;;22.49;58.38;94792.59;5050232;28;19916;-74
2022/06/23 07:50:25;;;;;;;;;;;;;;;22.56;57.81;94798.19;5056051;28;19924;-74
2022/06/23 07:52:54;;;;;;;;;;;;;;;22.68;58.61;94803.69;5047295;28;19928;-75
2022/06/23 07:55:33;;;;;;;;;;;;;;;22.60;57.11;94812.41;5020835;28;19921;-75
2022/06/23 07:58:14;;;;;;;;;;;;;;;21.96;55.73;94809.28;5049931;28;19952;-75
2022/06/23 08:00:40;;;;;;;;;;;;;;;21.71;56.61;94800.13;5048477;28;19988;-75
2022/06/23 08:03:12;;;;;;;;;;;;;;;22.16;55.72;94787.63;5041815;28;19920;-75
2022/06/23 08:05:53;;;;;;;;;;;;;;;22.70;53.28;94801.53;5046864;28;19967;-76
2022/06/23 08:08:19;;;;;;;;;;;;;;;23.30;53.49;94814.13;5021618;28;19923;-76
2022/06/23 08:10:44;;;;;;;;;;;;;;;23.28;53.36;94805.72;5038434;28;19916;-74
2022/06/23 08:13:20;;;;;;;;;;;;;;;23.85;53.01;94788.81;5056587;28;19920;-75
2022/06/23 08:18:34;;;;;;;;;;;;;;;24.88;49.67;94790.28;5050352;28;19926;-75
2022/06/23 08:21:14;;;;;;;;;;;;;;;25.27;47.75;94796.34;5048794;28;19974;-75
2022/06/23 08:23:45;;;;;;;;;;;;;;;25.41;47.66;94780.88;5054970;28;19979;-74
2022/06/23 08:26:11;;;;;;;;;;;;;;;25.68;48.04;94775.00;5048970;28;19916;-75
2022/06/23 08:28:37;;;;;;;;;;;;;;;25.98;47.71;94764.22;5049776;28;19921;-75
2022/06/23 08:31:03;;;;;;;;;;;;;;;26.25;47.55;94770.81;5036627;28;19966;-75
2022/06/23 08:33:28;;;;;;;;;;;;;;;26.67;46.48;94782.06;5055073;28;20007;-76
2022/06/23 08:35:53;;;;;;;;;;;;;;;27.10;44.21;94770.06;5056417;28;20293;-77
2022/06/23 08:38:20;;;;;;;;;;;;;;;27.44;43.58;94761.50;5039159;28;19966;-75
2022/06/23 08:40:48;;;;;;;;;;;;;;;27.77;43.85;94760.47;5048642;28;20345;-76
2022/06/23 08:43:16;;;;;;;;;;;;;;;28.15;44.13;94756.47;5049188;28;19916;-76
2022/06/23 08:45:54;;;;;;;;;;;;;;;28.44;41.25;94758.75;5054036;28;20147;-76
2022/06/23 08:48:23;;;;;;;;;;;;;;;28.69;40.58;94753.97;5055958;28;19916;-78
2022/06/23 08:50:56;;;;;;;;;;;;;;;28.78;38.74;94745.75;5051898;28;20365;-76
2022/06/23 08:53:31;;;;;;;;;;;;;;;28.70;40.97;94750.19;5043438;28;20873;-78
2022/06/23 08:55:59;;;;;;;;;;;;;;;28.72;40.73;94745.25;5058816;28;20399;-79
2022/06/23 08:58:30;;;;;;;;;;;;;;;28.76;39.60;94742.66;5058531;28;20027;-77
2022/06/23 09:00:57;;;;;;;;;;;;;;;28.72;39.82;94747.16;5045424;28;19917;-77
2022/06/23 09:03:29;;;;;;;;;;;;;;;28.79;40.87;94749.97;5043521;28;20332;-77
2022/06/23 09:06:00;;;;;;;;;;;;;;;28.82;39.29;94746.63;5061765;28;19956;-77
2022/06/23 09:08:31;;;;;;;;;;;;;;;28.66;39.61;94738.63;5050554;28;19916;-77
2022/06/23 09:10:59;;;;;;;;;;;;;;;28.72;39.01;94744.47;5052917;28;20133;-77
2022/06/23 09:13:27;;;;;;;;;;;;;;;28.79;39.00;94739.28;5053943;28;19935;-77
2022/06/23 09:15:52;;;;;;;;;;;;;;;29.11;38.42;94743.44;5051155;28;19917;-78
2022/06/23 09:18:37;;;;;;;;;;;;;;;29.42;38.20;94725.69;5050971;28;19923;-78
2022/06/23 09:21:20;;;;;;;;;;;;;;;29.46;39.34;94724.69;5052932;28;19928;-78
2022/06/23 09:23:48;;;;;;;;;;;;;;;29.61;39.07;94730.28;5051685;28;19916;-77
2022/06/23 09:26:14;;;;;;;;;;;;;;;29.60;38.63;94729.50;5050597;28;20063;-76
2022/06/23 09:28:39;;;;;;;;;;;;;;;29.78;38.32;94725.28;5055850;28;19999;-78
2022/06/23 09:31:33;;;;;;;;;;;;;;;29.89;38.79;94715.50;5052942;28;19921;-76
2022/06/23 09:34:01;;;;;;;;;;;;;;;29.89;36.98;94712.81;5044775;28;19921;-78
2022/06/23 09:36:27;;;;;;;;;;;;;;;29.53;37.84;94707.94;5053445;28;20365;-77
2022/06/23 09:39:04;;;;;;;;;;;;;;;29.04;38.44;94705.81;5053048;28;19921;-77
2022/06/23 09:41:41;;;;;;;;;;;;;;;28.90;39.55;94700.16;5052841;28;20011;-77
2022/06/23 09:44:18;;;;;;;;;;;;;;;28.85;39.37;94703.09;5049236;28;19922;-77
2022/06/23 09:46:52;;;;;;;;;;;;;;;28.93;39.63;94696.78;5053710;28;19985;-77
2022/06/23 09:49:24;;;;;;;;;;;;;;;29.01;39.35;94690.47;5050467;28;20460;-77
2022/06/23 09:52:02;;;;;;;;;;;;;;;29.02;39.82;94699.28;5058255;28;19964;-80
2022/06/23 09:54:28;;;;;;;;;;;;;;;28.95;39.23;94702.56;5049801;28;19921;-82
2022/06/23 09:56:59;;;;;;;;;;;;;;;28.91;40.72;94705.16;5057073;28;19952;-82
2022/06/23 09:59:28;;;;;;;;;;;;;;;28.73;39.66;94708.56;5046889;28;19913;-81
2022/06/23 10:01:56;;;;;;;;;;;;;;;27.91;41.91;94709.31;5062622;28;19984;-81
2022/06/23 10:04:21;;;;;;;;;;;;;;;27.93;43.10;94707.84;5047940;28;19920;-80
2022/06/23 10:06:50;;;;;;;;;;;;;;;27.83;42.82;94707.59;5049720;28;19920;-81
2022/06/23 10:09:33;;;;;;;;;;;;;;;27.60;42.57;94710.00;5057831;28;20406;-80
2022/06/23 10:12:00;;;;;;;;;;;;;;;27.35;42.75;94702.13;5061687;28;19920;-81
2022/06/23 10:14:32;;;;;;;;;;;;;;;27.12;43.69;94704.53;5043496;28;20010;-81
2022/06/23 10:17:19;;;;;;;;;;;;;;;26.53;45.91;94706.97;5063538;28;20400;-81
2022/06/23 10:20:03;;;;;;;;;;;;;;;26.14;46.13;94701.16;5068627;28;19916;-81
2022/06/23 10:22:32;;;;;;;;;;;;;;;26.18;47.25;94680.72;5069728;28;19999;-81
2022/06/23 10:25:20;;;;;;;;;;;;;;;26.37;47.31;94679.44;5062393;28;19920;-80
2022/06/23 10:27:55;;;;;;;;;;;;;;;26.19;49.09;94676.94;5051857;28;19975;-82
2022/06/23 10:30:23;;;;;;;;;;;;;;;26.01;47.70;94672.97;5062065;28;19947;-81
2022/06/23 10:32:58;;;;;;;;;;;;;;;26.20;48.09;94667.88;5057932;28;20019;-82
2022/06/23 10:35:23;;;;;;;;;;;;;;;26.55;48.19;94670.88;5067769;28;20011;-82
2022/06/23 10:37:56;;;;;;;;;;;;;;;26.72;47.42;94664.50;5055729;28;19967;-80
2022/06/23 10:40:41;;;;;;;;;;;;;;;26.42;46.67;94673.88;5048126;28;20249;-80
2022/06/23 10:43:06;;;;;;;;;;;;;;;26.44;46.80;94653.75;5047757;28;19968;-80
2022/06/23 10:45:35;;;;;;;;;;;;;;;26.51;47.10;94651.28;5057892;28;20012;-81
2022/06/23 10:48:00;;;;;;;;;;;;;;;26.62;48.60;94656.94;5058211;28;19944;-82
2022/06/23 10:50:36;;;;;;;;;;;;;;;26.67;48.13;94648.69;5060629;28;19912;-81
2022/06/23 10:53:05;;;;;;;;;;;;;;;26.82;48.48;94658.66;5036898;28;20540;-81
2022/06/23 10:55:49;;;;;;;;;;;;;;;26.97;48.91;94653.72;5052941;28;19918;-82
2022/06/23 10:58:17;;;;;;;;;;;;;;;27.03;47.00;94649.75;5067954;28;19920;-81
2022/06/23 11:01:01;;;;;;;;;;;;;;;26.99;48.54;94659.50;5048857;28;20402;-82
2022/06/23 11:03:27;;;;;;;;;;;;;;;26.97;49.70;94651.06;5066135;28;19955;-82
2022/06/23 11:05:55;;;;;;;;;;;;;;;26.85;47.12;94650.00;5062499;28;19917;-81
2022/06/23 11:08:29;;;;;;;;;;;;;;;26.71;48.26;94652.28;5067072;28;19983;-81
2022/06/23 11:11:07;;;;;;;;;;;;;;;26.62;48.02;94646.28;5074098;28;19921;-81
2022/06/23 11:13:39;;;;;;;;;;;;;;;26.52;48.01;94652.06;5071312;28;19928;-83
2022/06/23 11:16:07;;;;;;;;;;;;;;;26.27;49.13;94646.75;5066606;28;19917;-82
2022/06/23 11:18:51;;;;;;;;;;;;;;;26.40;50.20;94654.78;5070331;28;19923;-82
2022/06/23 11:21:36;;;;;;;;;;;;;;;26.64;49.65;94644.03;5057431;28;20296;-82
2022/06/23 11:24:03;;;;;;;;;;;;;;;26.74;48.58;94640.91;5055924;28;19924;-79
2022/06/23 11:26:28;;;;;;;;;;;;;;;26.72;48.27;94640.47;5056578;28;19920;-78
2022/06/23 11:28:58;;;;;;;;;;;;;;;26.70;50.53;94650.72;5054190;28;20379;-76
2022/06/23 11:31:24;;;;;;;;;;;;;;;26.32;49.61;94661.72;5049587;28;19928;-75
2022/06/23 11:34:01;;;;;;;;;;;;;;;26.33;49.83;94661.41;5051563;28;19917;-76
2022/06/23 11:36:41;;;;;;;;;;;;;;;26.47;50.24;94668.31;5060273;28;19916;-76
2022/06/23 11:39:14;;;;;;;;;;;;;;;26.46;50.16;94674.75;5049265;28;19921;-76
2022/06/23 11:41:45;;;;;;;;;;;;;;;26.50;51.74;94683.63;5040316;28;19932;-75
2022/06/23 11:44:28;;;;;;;;;;;;;;;26.65;51.40;94671.50;5050253;28;19924;-76
2022/06/23 11:47:04;;;;;;;;;;;;;;;26.83;49.60;94678.91;5049876;28;19917;-76
2022/06/23 11:49:41;;;;;;;;;;;;;;;26.98;48.75;94680.06;5019825;28;19970;-76
2022/06/23 11:52:07;;;;;;;;;;;;;;;27.11;48.50;94672.84;5045932;28;19968;-76
2022/06/23 11:54:50;;;;;;;;;;;;;;;27.20;46.73;94665.47;5045182;28;20392;-76
2022/06/23 11:57:20;;;;;;;;;;;;;;;27.26;47.24;94680.13;5045053;28;19921;-75
2022/06/23 11:59:45;;;;;;;;;;;;;;;27.39;48.31;94673.63;5050763;28;20439;-76
2022/06/23 12:02:11;;;;;;;;;;;;;;;27.56;47.29;94666.41;5046906;28;20197;-76
2022/06/23 12:04:36;;;;;;;;;;;;;;;27.78;47.20;94665.84;5058990;23;19932;-76
2022/06/23 12:07:08;;;;;;;;;;;;;;;27.95;45.85;94672.75;4998956;28;19953;-76
2022/06/23 12:09:40;;;;;;;;;;;;;;;28.07;45.68;94662.75;4989616;28;19996;-75
2022/06/23 12:12:05;;;;;;;;;;;;;;;28.23;46.12;94656.59;4971654;28;20456;-76
2022/06/23 12:14:31;;;;;;;;;;;;;;;28.32;45.40;94649.22;4972084;28;19917;-76
2022/06/23 12:16:58;;;;;;;;;;;;;;;28.29;45.06;94641.88;4972441;28;19925;-76
2022/06/23 12:19:26;;;;;;;;;;;;;;;28.19;44.20;94639.72;4972007;28;20003;-76
2022/06/23 12:21:51;;;;;;;;;;;;;;;28.08;44.46;94645.59;4971644;28;20085;-76
2022/06/23 12:24:23;;;;;;;;;;;;;;;28.05;44.58;94635.59;4988198;28;20369;-76
2022/06/23 12:26:57;;;;;;;;;;;;;;;28.07;45.58;94644.03;4972211;28;20422;-76
2022/06/23 12:29:41;;;;;;;;;;;;;;;28.18;44.84;94640.84;4989086;28;19925;-76
2022/06/23 12:32:27;;;;;;;;;;;;;;;28.20;44.97;94635.91;4972669;28;19921;-75
2022/06/23 12:35:04;;;;;;;;;;;;;;;28.17;44.65;94631.28;4976302;28;19988;-76
2022/06/23 12:37:50;;;;;;;;;;;;;;;27.97;42.87;94636.53;4988630;28;19929;-75
2022/06/23 12:40:26;;;;;;;;;;;;;;;27.84;44.18;94642.34;4989456;28;19921;-76
2022/06/23 12:42:56;;;;;;;;;;;;;;;27.82;44.40;94642.66;4989813;28;19980;-75
2022/06/23 12:45:21;;;;;;;;;;;;;;;27.92;44.38;94620.75;4956265;28;19975;-75
2022/06/23 12:48:05;;;;;;;;;;;;;;;27.97;44.19;94627.72;4989862;28;20632;-76
2022/06/23 12:50:33;;;;;;;;;;;;;;;27.97;44.32;94627.72;4972399;28;19922;-76
2022/06/23 12:53:08;;;;;;;;;;;;;;;27.91;44.55;94632.56;4987113;28;19917;-76
2022/06/23 12:55:51;;;;;;;;;;;;;;;27.87;44.69;94628.28;4972246;28;19929;-76
2022/06/23 12:58:31;;;;;;;;;;;;;;;27.83;45.05;94638.88;4972234;28;20390;-74
2022/06/23 13:01:05;;;;;;;;;;;;;;;27.81;44.58;94633.09;4989924;28;19932;-75
2022/06/23 13:03:31;;;;;;;;;;;;;;;27.77;43.67;94634.91;4971801;28;19922;-75
2022/06/23 13:05:58;;;;;;;;;;;;;;;27.67;43.97;94640.78;4972604;28;19992;-76
2022/06/23 13:08:28;;;;;;;;;;;;;;;27.55;44.04;94640.81;4987874;28;19987;-76
2022/06/23 13:10:59;;;;;;;;;;;;;;;27.49;44.34;94630.38;4989605;28;20012;-75
2022/06/23 13:13:28;;;;;;;;;;;;;;;27.48;45.03;94647.50;4972021;28;20020;-75
2022/06/23 13:15:54;;;;;;;;;;;;;;;27.37;45.77;94638.47;4972145;28;19922;-75
2022/06/23 13:18:26;;;;;;;;;;;;;;;27.29;46.13;94647.41;4972043;28;19957;-75
2022/06/23 13:20:55;;;;;;;;;;;;;;;27.18;46.08;94665.03;4988638;28;20426;-75
2022/06/23 13:23:21;;;;;;;;;;;;;;;27.12;46.79;94659.16;4992153;28;19925;-77
2022/06/23 13:25:51;;;;;;;;;;;;;;;27.15;46.38;94679.03;4976031;28;19985;-78
2022/06/23 13:28:28;;;;;;;;;;;;;;;27.15;47.03;94674.47;4979518;28;19917;-78
2022/06/23 13:30:54;;;;;;;;;;;;;;;27.31;45.28;94660.41;4976449;28;20016;-77
2022/06/23 13:33:23;;;;;;;;;;;;;;;27.36;46.53;94662.84;4973605;28;20020;-81
2022/06/23 13:36:12;;;;;;;;;;;;;;;27.39;45.92;94657.59;4980736;28;19924;-79